createdAt,value
2022-08-30T00:00:21.602Z,82
2022-08-30T00:01:23.143Z,82
2022-08-30T00:02:31.866Z,82
2022-08-30T00:03:25.202Z,82
2022-08-30T00:04:25.707Z,82
2022-08-30T00:05:23.055Z,82
2022-08-30T00:06:18.096Z,82
2022-08-30T00:07:25.576Z,82
2022-08-30T00:08:19.962Z,82
2022-08-30T00:09:32.377Z,82
2022-08-30T00:10:11.322Z,82
2022-08-30T00:11:29.846Z,82
2022-08-30T00:12:26.405Z,82
2022-08-30T00:13:23.217Z,82
2022-08-30T00:14:22.104Z,82
2022-08-30T00:15:29.162Z,82
2022-08-30T00:16:23.391Z,82
2022-08-30T00:17:23.660Z,82
2022-08-30T00:18:22.366Z,82
2022-08-30T00:19:26.429Z,82
2022-08-30T00:20:23.563Z,82
2022-08-30T00:21:20.150Z,82
2022-08-30T00:22:20.057Z,83
2022-08-30T00:23:45.473Z,83
2022-08-30T00:24:11.506Z,83
2022-08-30T00:25:25.923Z,83
2022-08-30T00:26:16.456Z,83
2022-08-30T00:27:17.029Z,83
2022-08-30T00:28:26.659Z,83
2022-08-30T00:29:22.570Z,83
2022-08-30T00:30:23.244Z,83
2022-08-30T00:31:10.760Z,83
2022-08-30T00:32:23.019Z,83
2022-08-30T00:33:23.099Z,83
2022-08-30T00:34:22.935Z,83
2022-08-30T00:35:27.469Z,83
2022-08-30T00:36:20.102Z,83
2022-08-30T00:37:19.322Z,83
2022-08-30T00:38:24.685Z,83
2022-08-30T00:39:27.508Z,83
2022-08-30T00:40:11.377Z,83
2022-08-30T00:41:23.112Z,83
2022-08-30T00:42:17.661Z,83
2022-08-30T00:43:27.816Z,83
2022-08-30T00:44:19.034Z,83
2022-08-30T00:45:24.549Z,83
2022-08-30T00:46:21.680Z,83
2022-08-30T00:47:29.928Z,83
2022-08-30T00:48:23.291Z,83
2022-08-30T00:49:28.027Z,83
2022-08-30T00:50:26.473Z,83
2022-08-30T00:51:27.687Z,83
2022-08-30T00:52:24.054Z,83
2022-08-30T00:53:21.516Z,83
2022-08-30T00:54:18.757Z,83
2022-08-30T00:55:26.337Z,83
2022-08-30T00:56:24.708Z,83
2022-08-30T00:57:24.186Z,83
2022-08-30T00:58:22.143Z,83
2022-08-30T00:59:22.423Z,83
2022-08-30T01:00:16.493Z,83
2022-08-30T01:01:27.558Z,84
2022-08-30T01:02:20.616Z,84
2022-08-30T01:03:20.897Z,84
2022-08-30T01:04:22.155Z,84
2022-08-30T01:05:24.587Z,84
2022-08-30T01:06:19.901Z,84
2022-08-30T01:07:25.728Z,84
2022-08-30T01:08:23.427Z,84
2022-08-30T01:09:29.068Z,84
2022-08-30T01:10:10.186Z,84
2022-08-30T01:11:19.763Z,84
2022-08-30T01:12:24.591Z,84
2022-08-30T01:13:24.131Z,84
2022-08-30T01:14:25.299Z,84
2022-08-30T01:15:22.951Z,84
2022-08-30T01:16:24.210Z,84
2022-08-30T01:17:27.366Z,84
2022-08-30T01:18:28.670Z,84
2022-08-30T01:19:26.705Z,84
2022-08-30T01:20:25.542Z,84
2022-08-30T01:21:24.065Z,84
2022-08-30T01:22:20.621Z,84
2022-08-30T01:23:25.664Z,84
2022-08-30T01:24:24.287Z,84
2022-08-30T01:25:24.302Z,84
2022-08-30T01:26:26.101Z,84
2022-08-30T01:27:21.737Z,84
2022-08-30T01:28:20.744Z,84
2022-08-30T01:29:21.812Z,84
2022-08-30T01:30:20.413Z,84
2022-08-30T01:31:27.412Z,84
2022-08-30T01:32:32.682Z,84
2022-08-30T01:33:21.217Z,84
2022-08-30T01:34:29.911Z,84
2022-08-30T01:35:19.303Z,84
2022-08-30T01:36:26.156Z,84
2022-08-30T01:37:18.993Z,84
2022-08-30T01:38:26.379Z,84
2022-08-30T01:39:24.801Z,84
2022-08-30T01:40:13.546Z,84
2022-08-30T01:41:22.280Z,84
2022-08-30T01:42:21.256Z,84
2022-08-30T01:43:21.398Z,84
2022-08-30T01:44:18.023Z,84
2022-08-30T01:45:26.298Z,84
2022-08-30T01:46:21.680Z,84
2022-08-30T01:47:23.472Z,84
2022-08-30T01:48:33.267Z,84
2022-08-30T01:49:31.744Z,84
2022-08-30T01:50:26.801Z,84
2022-08-30T01:51:22.562Z,84
2022-08-30T01:52:23.040Z,84
2022-08-30T01:53:21.798Z,84
2022-08-30T01:54:18.828Z,84
2022-08-30T01:55:20.829Z,84
2022-08-30T01:56:19.402Z,84
2022-08-30T01:57:22.646Z,84
2022-08-30T01:58:22.784Z,84
2022-08-30T01:59:20.726Z,84
2022-08-30T02:00:19.180Z,84
2022-08-30T02:01:21.201Z,84
2022-08-30T02:02:22.464Z,84
2022-08-30T02:03:23.803Z,84
2022-08-30T02:04:18.618Z,84
2022-08-30T02:05:23.762Z,84
2022-08-30T02:06:23.856Z,84
2022-08-30T02:07:23.305Z,84
2022-08-30T02:08:20.677Z,84
2022-08-30T02:09:28.050Z,84
2022-08-30T02:10:09.472Z,84
2022-08-30T02:11:20.519Z,84
2022-08-30T02:12:17.250Z,84
2022-08-30T02:13:27.423Z,84
2022-08-30T02:14:27.479Z,84
2022-08-30T02:15:22.855Z,84
2022-08-30T02:16:17.700Z,84
2022-08-30T02:17:24.118Z,84
2022-08-30T02:18:18.140Z,84
2022-08-30T02:19:27.078Z,84
2022-08-30T02:20:24.229Z,84
2022-08-30T02:21:28.989Z,84
2022-08-30T02:22:16.795Z,84
2022-08-30T02:23:27.863Z,84
2022-08-30T02:24:20.696Z,84
2022-08-30T02:25:30.612Z,84
2022-08-30T02:26:25.857Z,84
2022-08-30T02:27:26.708Z,84
2022-08-30T02:28:26.780Z,84
2022-08-30T02:29:24.608Z,84
2022-08-30T02:30:23.135Z,84
2022-08-30T02:31:25.668Z,84
2022-08-30T02:32:23.251Z,84
2022-08-30T02:33:20.452Z,84
2022-08-30T02:34:26.026Z,84
2022-08-30T02:35:26.150Z,84
2022-08-30T02:36:24.005Z,84
2022-08-30T02:37:26.629Z,84
2022-08-30T02:38:22.256Z,84
2022-08-30T02:39:27.573Z,84
2022-08-30T02:40:10.133Z,84
2022-08-30T02:41:22.042Z,84
2022-08-30T02:42:19.759Z,84
2022-08-30T02:43:18.664Z,84
2022-08-30T02:44:22.939Z,84
2022-08-30T02:45:21.516Z,84
2022-08-30T02:46:37.306Z,84
2022-08-30T02:47:25.264Z,84
2022-08-30T02:48:30.367Z,84
2022-08-30T02:49:39.257Z,84
2022-08-30T02:50:23.028Z,84
2022-08-30T02:51:26.008Z,84
2022-08-30T02:52:32.221Z,84
2022-08-30T02:53:23.849Z,84
2022-08-30T02:54:21.401Z,84
2022-08-30T02:55:26.388Z,84
2022-08-30T02:56:22.406Z,84
2022-08-30T02:57:26.629Z,84
2022-08-30T02:58:24.141Z,84
2022-08-30T02:59:22.909Z,84
2022-08-30T03:00:22.268Z,84
2022-08-30T03:01:31.506Z,84
2022-08-30T03:02:18.616Z,84
2022-08-30T03:03:22.413Z,84
2022-08-30T03:04:26.564Z,84
2022-08-30T03:05:24.530Z,84
2022-08-30T03:06:24.040Z,84
2022-08-30T03:07:21.233Z,84
2022-08-30T03:08:21.156Z,84
2022-08-30T03:09:31.661Z,84
2022-08-30T03:10:09.019Z,84
2022-08-30T03:11:22.390Z,84
2022-08-30T03:12:23.136Z,84
2022-08-30T03:13:19.001Z,84
2022-08-30T03:14:23.921Z,84
2022-08-30T03:15:21.783Z,84
2022-08-30T03:16:23.537Z,84
2022-08-30T03:17:25.120Z,84
2022-08-30T03:18:19.432Z,85
2022-08-30T03:19:16.834Z,84
2022-08-30T03:20:20.029Z,84
2022-08-30T03:21:20.752Z,85
2022-08-30T03:22:23.499Z,85
2022-08-30T03:23:28.474Z,85
2022-08-30T03:24:20.901Z,85
2022-08-30T03:25:23.238Z,85
2022-08-30T03:26:23.092Z,85
2022-08-30T03:27:21.322Z,85
2022-08-30T03:28:19.962Z,85
2022-08-30T03:29:20.499Z,85
2022-08-30T03:30:24.760Z,85
2022-08-30T03:31:25.209Z,85
2022-08-30T03:32:22.379Z,85
2022-08-30T03:33:29.470Z,85
2022-08-30T03:34:26.168Z,85
2022-08-30T03:35:23.456Z,85
2022-08-30T03:36:26.396Z,85
2022-08-30T03:37:31.675Z,85
2022-08-30T03:38:24.302Z,85
2022-08-30T03:39:27.240Z,85
2022-08-30T03:40:10.909Z,85
2022-08-30T03:41:17.276Z,85
2022-08-30T03:42:25.195Z,85
2022-08-30T03:43:23.116Z,85
2022-08-30T03:44:23.545Z,85
2022-08-30T03:45:20.120Z,85
2022-08-30T03:46:31.843Z,85
2022-08-30T03:47:16.763Z,85
2022-08-30T03:48:28.261Z,85
2022-08-30T03:49:24.447Z,85
2022-08-30T03:50:19.641Z,85
2022-08-30T03:51:18.952Z,85
2022-08-30T03:52:24.825Z,85
2022-08-30T03:53:25.610Z,85
2022-08-30T03:54:18.734Z,85
2022-08-30T03:55:24.009Z,85
2022-08-30T03:56:18.751Z,85
2022-08-30T03:57:28.505Z,85
2022-08-30T03:58:25.542Z,85
2022-08-30T03:59:25.532Z,85
2022-08-30T04:00:24.097Z,85
2022-08-30T04:01:25.210Z,85
2022-08-30T04:02:19.647Z,85
2022-08-30T04:03:23.790Z,85
2022-08-30T04:04:27.410Z,85
2022-08-30T04:05:22.895Z,85
2022-08-30T04:06:21.940Z,85
2022-08-30T04:07:17.448Z,85
2022-08-30T04:08:23.769Z,85
2022-08-30T04:09:25.907Z,85
2022-08-30T04:10:10.674Z,85
2022-08-30T04:11:21.000Z,86
2022-08-30T04:12:28.940Z,86
2022-08-30T04:13:20.176Z,86
2022-08-30T04:14:19.900Z,86
2022-08-30T04:15:19.343Z,86
2022-08-30T04:16:21.465Z,86
2022-08-30T04:17:24.741Z,86
2022-08-30T04:18:22.850Z,86
2022-08-30T04:19:21.286Z,85
2022-08-30T04:20:21.835Z,85
2022-08-30T04:21:23.964Z,85
2022-08-30T04:22:18.541Z,85
2022-08-30T04:23:21.913Z,85
2022-08-30T04:24:25.551Z,85
2022-08-30T04:25:27.365Z,85
2022-08-30T04:26:10.074Z,85
2022-08-30T04:27:23.802Z,85
2022-08-30T04:28:25.399Z,85
2022-08-30T04:29:14.922Z,85
2022-08-30T04:30:24.777Z,85
2022-08-30T04:31:21.848Z,85
2022-08-30T04:32:23.817Z,85
2022-08-30T04:33:23.471Z,85
2022-08-30T04:34:25.572Z,85
2022-08-30T04:35:26.707Z,86
2022-08-30T04:36:18.847Z,86
2022-08-30T04:37:19.486Z,86
2022-08-30T04:38:27.537Z,85
2022-08-30T04:39:28.540Z,85
2022-08-30T04:40:10.387Z,86
2022-08-30T04:41:23.802Z,86
2022-08-30T04:42:23.656Z,85
2022-08-30T04:43:20.263Z,85
2022-08-30T04:44:25.798Z,86
2022-08-30T04:45:27.288Z,86
2022-08-30T04:46:09.710Z,86
2022-08-30T04:47:23.240Z,86
2022-08-30T04:48:21.941Z,86
2022-08-30T04:49:25.092Z,86
2022-08-30T04:50:22.342Z,86
2022-08-30T04:51:28.557Z,86
2022-08-30T04:52:23.975Z,86
2022-08-30T04:53:18.235Z,86
2022-08-30T04:54:14.735Z,86
2022-08-30T04:55:26.556Z,86
2022-08-30T04:56:24.586Z,86
2022-08-30T04:57:21.661Z,86
2022-08-30T04:58:19.353Z,86
2022-08-30T04:59:24.606Z,86
2022-08-30T05:00:33.033Z,86
2022-08-30T05:01:28.502Z,86
2022-08-30T05:02:26.616Z,86
2022-08-30T05:03:23.271Z,86
2022-08-30T05:04:23.187Z,86
2022-08-30T05:05:20.616Z,86
2022-08-30T05:06:18.989Z,86
2022-08-30T05:07:26.528Z,86
2022-08-30T05:08:25.292Z,86
2022-08-30T05:09:26.214Z,86
2022-08-30T05:10:15.901Z,86
2022-08-30T05:11:20.254Z,86
2022-08-30T05:12:23.423Z,86
2022-08-30T05:13:21.226Z,86
2022-08-30T05:14:24.194Z,86
2022-08-30T05:15:22.032Z,86
2022-08-30T05:16:26.787Z,86
2022-08-30T05:17:27.800Z,86
2022-08-30T05:18:20.601Z,86
2022-08-30T05:19:21.852Z,86
2022-08-30T05:20:24.800Z,86
2022-08-30T05:21:23.378Z,86
2022-08-30T05:22:19.518Z,86
2022-08-30T05:23:25.075Z,86
2022-08-30T05:24:19.231Z,86
2022-08-30T05:25:22.081Z,86
2022-08-30T05:26:20.217Z,86
2022-08-30T05:27:26.550Z,86
2022-08-30T05:28:32.166Z,86
2022-08-30T05:29:18.322Z,86
2022-08-30T05:30:24.503Z,86
2022-08-30T05:31:26.026Z,86
2022-08-30T05:32:22.997Z,86
2022-08-30T05:33:21.644Z,86
2022-08-30T05:34:27.583Z,86
2022-08-30T05:35:27.928Z,86
2022-08-30T05:36:21.397Z,86
2022-08-30T05:37:25.723Z,86
2022-08-30T05:38:12.253Z,86
2022-08-30T05:39:53.735Z,86
2022-08-30T05:40:17.321Z,86
2022-08-30T05:41:22.988Z,86
2022-08-30T05:42:23.150Z,86
2022-08-30T05:43:29.997Z,86
2022-08-30T05:44:32.101Z,86
2022-08-30T05:45:20.090Z,86
2022-08-30T05:46:30.110Z,86
2022-08-30T05:47:23.019Z,86
2022-08-30T05:48:25.267Z,86
2022-08-30T05:49:22.664Z,86
2022-08-30T05:50:24.194Z,86
2022-08-30T05:51:24.934Z,86
2022-08-30T05:52:21.145Z,86
2022-08-30T05:53:24.839Z,86
2022-08-30T05:54:20.789Z,86
2022-08-30T05:55:22.010Z,86
2022-08-30T05:56:17.376Z,86
2022-08-30T05:57:22.285Z,86
2022-08-30T05:58:18.090Z,86
2022-08-30T05:59:24.143Z,86
2022-08-30T06:00:23.122Z,86
2022-08-30T06:01:22.551Z,86
2022-08-30T06:02:21.514Z,86
2022-08-30T06:03:24.430Z,87
2022-08-30T06:04:18.278Z,87
2022-08-30T06:05:24.879Z,87
2022-08-30T06:06:22.015Z,87
2022-08-30T06:07:29.096Z,87
2022-08-30T06:08:20.820Z,87
2022-08-30T06:09:24.306Z,87
2022-08-30T06:10:11.884Z,86
2022-08-30T06:11:22.322Z,86
2022-08-30T06:12:22.813Z,86
2022-08-30T06:13:16.732Z,86
2022-08-30T06:14:19.316Z,86
2022-08-30T06:15:22.381Z,86
2022-08-30T06:16:21.526Z,86
2022-08-30T06:17:26.562Z,86
2022-08-30T06:18:19.011Z,86
2022-08-30T06:19:17.140Z,86
2022-08-30T06:20:23.034Z,86
2022-08-30T06:21:21.484Z,86
2022-08-30T06:22:24.493Z,86
2022-08-30T06:23:21.418Z,86
2022-08-30T06:25:19.595Z,86
2022-08-30T06:26:23.823Z,86
2022-08-30T06:27:20.199Z,86
2022-08-30T06:28:22.432Z,86
2022-08-30T06:29:20.047Z,86
2022-08-30T06:30:25.822Z,85
2022-08-30T06:31:21.810Z,85
2022-08-30T06:32:21.378Z,85
2022-08-30T06:33:23.995Z,85
2022-08-30T06:34:25.711Z,85
2022-08-30T06:35:23.989Z,85
2022-08-30T06:36:22.478Z,85
2022-08-30T06:37:36.293Z,85
2022-08-30T06:38:27.296Z,85
2022-08-30T06:39:28.806Z,85
2022-08-30T06:40:08.695Z,85
2022-08-30T06:41:19.636Z,85
2022-08-30T06:42:23.713Z,85
2022-08-30T06:43:19.158Z,85
2022-08-30T06:44:23.272Z,85
2022-08-30T06:45:19.472Z,85
2022-08-30T06:46:21.924Z,85
2022-08-30T06:47:24.675Z,85
2022-08-30T06:48:21.029Z,85
2022-08-30T06:49:22.158Z,85
2022-08-30T06:50:26.349Z,85
2022-08-30T06:51:25.550Z,85
2022-08-30T06:52:27.632Z,85
2022-08-30T06:53:23.332Z,85
2022-08-30T06:54:19.700Z,85
2022-08-30T06:55:22.366Z,85
2022-08-30T06:56:25.168Z,84
2022-08-30T06:57:20.508Z,84
2022-08-30T06:58:27.228Z,84
2022-08-30T06:59:16.455Z,84
2022-08-30T07:00:23.663Z,84
2022-08-30T07:01:17.223Z,84
2022-08-30T07:02:24.482Z,84
2022-08-30T07:03:21.369Z,84
2022-08-30T07:04:16.531Z,84
2022-08-30T07:05:28.147Z,83
2022-08-30T07:06:25.081Z,83
2022-08-30T07:07:24.350Z,83
2022-08-30T07:08:25.791Z,83
2022-08-30T07:09:29.521Z,83
2022-08-30T07:10:14.093Z,83
2022-08-30T07:11:20.675Z,83
2022-08-30T07:12:24.922Z,83
2022-08-30T07:13:23.309Z,83
2022-08-30T07:14:29.620Z,83
2022-08-30T07:15:21.865Z,83
2022-08-30T07:16:09.052Z,83
2022-08-30T07:17:34.483Z,83
2022-08-30T07:18:26.177Z,83
2022-08-30T07:19:27.539Z,83
2022-08-30T07:20:24.294Z,82
2022-08-30T07:21:25.940Z,82
2022-08-30T07:22:27.922Z,82
2022-08-30T07:23:23.123Z,82
2022-08-30T07:24:26.344Z,82
2022-08-30T07:25:26.136Z,82
2022-08-30T07:26:28.710Z,82
2022-08-30T07:27:12.745Z,82
2022-08-30T07:28:31.172Z,82
2022-08-30T07:29:23.828Z,82
2022-08-30T07:30:26.983Z,82
2022-08-30T07:31:26.942Z,82
2022-08-30T07:32:28.589Z,82
2022-08-30T07:33:23.643Z,82
2022-08-30T07:34:29.413Z,82
2022-08-30T07:35:23.072Z,81
2022-08-30T07:36:26.912Z,81
2022-08-30T07:37:36.185Z,81
2022-08-30T07:38:24.638Z,81
2022-08-30T07:39:48.263Z,81
2022-08-30T07:40:10.179Z,81
2022-08-30T07:41:23.707Z,81
2022-08-30T07:42:24.626Z,81
2022-08-30T07:43:25.470Z,81
2022-08-30T07:44:31.370Z,80
2022-08-30T07:45:22.453Z,80
2022-08-30T07:46:22.287Z,80
2022-08-30T07:47:23.201Z,80
2022-08-30T07:48:30.168Z,80
2022-08-30T07:49:23.742Z,80
2022-08-30T07:50:26.601Z,80
2022-08-30T07:51:34.302Z,80
2022-08-30T07:52:23.902Z,80
2022-08-30T07:53:29.871Z,80
2022-08-30T07:54:22.335Z,80
2022-08-30T07:55:25.341Z,80
2022-08-30T07:56:25.514Z,80
2022-08-30T07:57:26.246Z,80
2022-08-30T07:58:22.928Z,80
2022-08-30T07:59:20.374Z,80
2022-08-30T08:00:13.406Z,80
2022-08-30T08:01:28.869Z,79
2022-08-30T08:02:20.103Z,79
2022-08-30T08:03:27.383Z,79
2022-08-30T08:04:23.802Z,79
2022-08-30T08:05:30.434Z,79
2022-08-30T08:06:26.206Z,78
2022-08-30T08:07:27.649Z,78
2022-08-30T08:08:23.431Z,78
2022-08-30T08:09:33.030Z,78
2022-08-30T08:10:30.929Z,78
2022-08-30T08:11:09.240Z,78
2022-08-30T08:12:25.645Z,78
2022-08-30T08:13:55.429Z,77
2022-08-30T08:14:19.540Z,77
2022-08-30T08:15:25.375Z,77
2022-08-30T08:16:24.199Z,77
2022-08-30T08:17:23.709Z,77
2022-08-30T08:18:25.727Z,77
2022-08-30T08:19:29.433Z,77
2022-08-30T08:20:24.076Z,77
2022-08-30T08:21:22.578Z,77
2022-08-30T08:22:27.485Z,77
2022-08-30T08:23:22.723Z,76
2022-08-30T08:24:22.460Z,76
2022-08-30T08:25:21.181Z,76
2022-08-30T08:26:25.623Z,76
2022-08-30T08:27:23.211Z,75
2022-08-30T08:28:26.442Z,75
2022-08-30T08:29:21.191Z,75
2022-08-30T08:30:24.405Z,75
2022-08-30T08:31:19.726Z,75
2022-08-30T08:32:22.257Z,75
2022-08-30T08:33:21.369Z,75
2022-08-30T08:34:20.852Z,75
2022-08-30T08:35:09.588Z,75
2022-08-30T08:36:20.747Z,74
2022-08-30T08:37:23.901Z,74
2022-08-30T08:38:22.463Z,74
2022-08-30T08:39:32.805Z,74
2022-08-30T08:40:10.474Z,74
2022-08-30T08:41:20.411Z,74
2022-08-30T08:42:23.250Z,74
2022-08-30T08:43:22.716Z,74
2022-08-30T08:44:20.111Z,74
2022-08-30T08:45:26.632Z,74
2022-08-30T08:46:29.742Z,74
2022-08-30T08:47:25.273Z,74
2022-08-30T08:48:35.890Z,73
2022-08-30T08:49:17.830Z,73
2022-08-30T08:50:24.728Z,73
2022-08-30T08:51:24.055Z,72
2022-08-30T08:52:21.778Z,72
2022-08-30T08:53:48.239Z,72
2022-08-30T08:54:24.645Z,72
2022-08-30T08:55:22.303Z,71
2022-08-30T08:56:23.388Z,71
2022-08-30T08:57:26.808Z,71
2022-08-30T08:58:18.586Z,71
2022-08-30T08:59:26.479Z,71
2022-08-30T09:00:23.472Z,71
2022-08-30T09:01:24.824Z,71
2022-08-30T09:02:30.791Z,70
2022-08-30T09:03:25.383Z,70
2022-08-30T09:04:24.780Z,70
2022-08-30T09:05:23.062Z,70
2022-08-30T09:06:28.915Z,70
2022-08-30T09:07:23.011Z,70
2022-08-30T09:08:23.127Z,70
2022-08-30T09:09:33.132Z,69
2022-08-30T09:10:10.203Z,69
2022-08-30T09:11:32.306Z,69
2022-08-30T09:12:24.945Z,69
2022-08-30T09:13:24.948Z,69
2022-08-30T09:14:24.907Z,69
2022-08-30T09:15:21.381Z,68
2022-08-30T09:16:28.877Z,68
2022-08-30T09:17:22.463Z,68
2022-08-30T09:18:26.281Z,68
2022-08-30T09:19:28.905Z,67
2022-08-30T09:20:19.999Z,67
2022-08-30T09:21:28.724Z,67
2022-08-30T09:22:23.531Z,67
2022-08-30T09:23:21.633Z,67
2022-08-30T09:24:28.622Z,66
2022-08-30T09:25:25.433Z,66
2022-08-30T09:26:27.193Z,66
2022-08-30T09:27:28.970Z,66
2022-08-30T09:28:20.792Z,66
2022-08-30T09:29:28.745Z,66
2022-08-30T09:30:22.567Z,66
2022-08-30T09:31:19.198Z,66
2022-08-30T09:32:31.740Z,66
2022-08-30T09:33:19.865Z,66
2022-08-30T09:34:30.132Z,66
2022-08-30T09:35:27.434Z,66
2022-08-30T09:36:20.427Z,66
2022-08-30T09:37:24.169Z,65
2022-08-30T09:38:27.801Z,65
2022-08-30T09:39:29.806Z,65
2022-08-30T09:40:12.722Z,64
2022-08-30T09:41:21.033Z,64
2022-08-30T09:42:25.986Z,64
2022-08-30T09:43:21.999Z,64
2022-08-30T09:44:24.543Z,64
2022-08-30T09:45:17.979Z,64
2022-08-30T09:46:26.668Z,64
2022-08-30T09:47:26.248Z,64
2022-08-30T09:48:20.818Z,64
2022-08-30T09:49:28.767Z,64
2022-08-30T09:50:26.157Z,63
2022-08-30T09:51:21.040Z,63
2022-08-30T09:52:27.589Z,62
2022-08-30T09:53:29.908Z,62
2022-08-30T09:54:30.998Z,62
2022-08-30T09:55:27.354Z,62
2022-08-30T09:56:19.308Z,62
2022-08-30T09:57:37.987Z,62
2022-08-30T09:58:21.299Z,62
2022-08-30T09:59:23.040Z,62
2022-08-30T10:00:21.911Z,61
2022-08-30T10:01:20.418Z,61
2022-08-30T10:02:22.868Z,61
2022-08-30T10:03:44.926Z,61
2022-08-30T10:04:26.305Z,61
2022-08-30T10:05:32.261Z,61
2022-08-30T10:06:27.898Z,61
2022-08-30T10:07:35.412Z,61
2022-08-30T10:08:29.437Z,61
2022-08-30T10:09:26.916Z,60
2022-08-30T10:10:17.866Z,60
2022-08-30T10:11:22.035Z,60
2022-08-30T10:12:25.732Z,60
2022-08-30T10:13:27.668Z,60
2022-08-30T10:14:21.381Z,60
2022-08-30T10:15:32.026Z,60
2022-08-30T10:16:24.251Z,60
2022-08-30T10:17:35.596Z,60
2022-08-30T10:18:20.550Z,60
2022-08-30T10:19:28.297Z,59
2022-08-30T10:20:24.128Z,59
2022-08-30T10:21:31.222Z,59
2022-08-30T10:22:28.436Z,59
2022-08-30T10:23:24.618Z,59
2022-08-30T10:24:30.131Z,59
2022-08-30T10:25:22.823Z,58
2022-08-30T10:26:34.151Z,58
2022-08-30T10:27:12.552Z,58
2022-08-30T10:29:24.269Z,58
2022-08-30T10:30:27.558Z,58
2022-08-30T10:31:12.972Z,57
2022-08-30T10:32:13.484Z,57
2022-08-30T10:33:35.969Z,57
2022-08-30T10:34:27.952Z,56
2022-08-30T10:35:38.268Z,56
2022-08-30T10:36:31.866Z,56
2022-08-30T10:37:25.854Z,55
2022-08-30T10:38:25.206Z,56
2022-08-30T10:39:25.070Z,56
2022-08-30T10:40:19.629Z,56
2022-08-30T10:41:27.555Z,55
2022-08-30T10:42:51.976Z,55
2022-08-30T11:14:15.046Z,54
2022-08-30T11:15:10.948Z,54
2022-08-30T11:16:17.605Z,50
2022-08-30T11:17:18.609Z,50
2022-08-30T11:18:15.958Z,50
2022-08-30T11:19:16.400Z,51
2022-08-30T11:20:17.997Z,50
2022-08-30T11:21:20.018Z,50
2022-08-30T11:22:17.361Z,50
2022-08-30T11:23:14.706Z,50
2022-08-30T11:24:18.332Z,50
2022-08-30T11:25:16.613Z,50
2022-08-30T11:26:26.651Z,50
2022-08-30T11:27:20.510Z,50
2022-08-30T11:28:24.131Z,50
2022-08-30T11:29:18.953Z,50
2022-08-30T11:30:22.060Z,50
2022-08-30T11:31:13.027Z,50
2022-08-30T11:32:20.010Z,49
2022-08-30T11:33:20.698Z,49
2022-08-30T11:34:23.301Z,50
2022-08-30T11:35:22.193Z,50
2022-08-30T11:36:15.072Z,49
2022-08-30T11:37:16.583Z,49
2022-08-30T11:38:19.922Z,49
2022-08-30T11:39:16.949Z,49
2022-08-30T11:40:23.136Z,49
2022-08-30T11:41:16.997Z,49
2022-08-30T11:42:18.269Z,49
2022-08-30T11:43:18.209Z,49
2022-08-30T11:44:11.026Z,49
2022-08-30T11:45:19.078Z,49
2022-08-30T11:46:21.053Z,49
2022-08-30T11:47:16.500Z,49
2022-08-30T11:48:17.777Z,49
2022-08-30T11:49:18.209Z,49
2022-08-30T11:50:21.364Z,49
2022-08-30T11:51:15.803Z,49
2022-08-30T11:52:35.145Z,49
2022-08-30T11:53:09.811Z,49
2022-08-30T11:54:18.347Z,48
2022-08-30T11:55:17.840Z,48
2022-08-30T11:56:16.562Z,48
2022-08-30T11:57:14.556Z,48
2022-08-30T11:58:18.508Z,48
2022-08-30T11:59:21.330Z,48
2022-08-30T12:00:18.569Z,48
2022-08-30T12:01:53.372Z,48
2022-08-30T12:02:17.309Z,48
2022-08-30T12:03:13.384Z,47
2022-08-30T12:04:21.600Z,47
2022-08-30T12:05:19.707Z,47
2022-08-30T12:06:10.211Z,47
2022-08-30T12:07:22.290Z,47
2022-08-30T12:08:17.410Z,47
2022-08-30T12:09:22.906Z,47
2022-08-30T12:10:15.901Z,47
2022-08-30T12:11:17.267Z,47
2022-08-30T12:12:10.221Z,47
2022-08-30T12:13:23.364Z,48
2022-08-30T12:14:17.325Z,48
2022-08-30T12:15:17.231Z,47
2022-08-30T12:16:18.576Z,47
2022-08-30T12:17:18.251Z,47
2022-08-30T12:18:23.591Z,47
2022-08-30T12:19:20.739Z,47
2022-08-30T12:20:18.826Z,47
2022-08-30T12:21:15.896Z,47
2022-08-30T12:22:19.317Z,46
2022-08-30T12:23:11.854Z,46
2022-08-30T12:24:19.386Z,46
2022-08-30T12:25:17.509Z,46
2022-08-30T12:26:17.169Z,46
2022-08-30T12:27:12.734Z,46
2022-08-30T12:28:19.306Z,46
2022-08-30T12:29:13.855Z,46
2022-08-30T12:30:19.227Z,46
2022-08-30T12:31:15.133Z,46
2022-08-30T12:32:19.342Z,46
2022-08-30T12:33:17.941Z,46
2022-08-30T12:34:21.329Z,46
2022-08-30T12:35:13.457Z,46
2022-08-30T12:36:18.907Z,46
2022-08-30T12:37:13.844Z,46
2022-08-30T12:38:09.128Z,46
2022-08-30T12:39:20.277Z,46
2022-08-30T12:40:13.014Z,46
2022-08-30T12:41:20.038Z,46
2022-08-30T12:42:10.509Z,46
2022-08-30T12:43:17.271Z,46
2022-08-30T12:44:12.710Z,46
2022-08-30T12:45:19.744Z,46
2022-08-30T12:46:17.524Z,46
2022-08-30T12:47:17.001Z,45
2022-08-30T12:48:18.625Z,45
2022-08-30T12:49:17.616Z,45
2022-08-30T12:50:21.555Z,45
2022-08-30T12:51:10.788Z,45
2022-08-30T12:52:18.325Z,45
2022-08-30T12:53:20.020Z,45
2022-08-30T12:54:16.160Z,45
2022-08-30T12:55:25.020Z,45
2022-08-30T12:56:12.438Z,45
2022-08-30T12:57:40.788Z,45
2022-08-30T12:58:12.144Z,45
2022-08-30T12:59:25.276Z,45
2022-08-30T13:00:10.562Z,45
2022-08-30T13:01:17.209Z,45
2022-08-30T13:02:27.634Z,45
2022-08-30T13:03:27.668Z,45
2022-08-30T13:04:14.214Z,45
2022-08-30T13:05:16.528Z,45
2022-08-30T13:06:17.123Z,45
2022-08-30T13:07:19.370Z,45
2022-08-30T13:08:18.135Z,45
2022-08-30T13:09:16.082Z,45
2022-08-30T13:10:21.662Z,45
2022-08-30T13:11:18.356Z,45
2022-08-30T13:12:15.909Z,45
2022-08-30T13:13:17.704Z,45
2022-08-30T13:14:16.743Z,45
2022-08-30T13:15:16.010Z,45
2022-08-30T13:16:16.970Z,45
2022-08-30T13:17:15.173Z,45
2022-08-30T13:18:21.626Z,45
2022-08-30T13:19:17.437Z,45
2022-08-30T13:20:20.273Z,45
2022-08-30T13:21:16.787Z,45
2022-08-30T13:22:22.655Z,45
2022-08-30T13:23:15.649Z,44
2022-08-30T13:24:22.378Z,44
2022-08-30T13:25:13.411Z,44
2022-08-30T13:26:25.541Z,44
2022-08-30T13:27:18.002Z,44
2022-08-30T13:28:17.371Z,44
2022-08-30T13:29:19.737Z,44
2022-08-30T13:30:17.521Z,44
2022-08-30T13:31:18.720Z,45
2022-08-30T13:32:16.864Z,45
2022-08-30T13:33:14.616Z,45
2022-08-30T13:34:16.004Z,45
2022-08-30T13:35:16.940Z,45
2022-08-30T13:36:15.323Z,46
2022-08-30T13:37:56.777Z,46
2022-08-30T13:39:25.976Z,45
2022-08-30T13:40:13.577Z,45
2022-08-30T13:41:17.071Z,45
2022-08-30T13:42:48.853Z,45
2022-08-30T13:43:13.905Z,45
2022-08-30T13:44:20.080Z,45
2022-08-30T13:45:45.644Z,45
2022-08-30T13:46:14.867Z,45
2022-08-30T13:47:48.940Z,45
2022-08-30T13:48:15.955Z,45
2022-08-30T13:49:50.381Z,46
2022-08-30T13:50:25.471Z,46
2022-08-30T13:51:14.871Z,46
2022-08-30T13:52:30.290Z,46
2022-08-30T13:53:51.163Z,46
2022-08-30T13:54:17.315Z,45
2022-08-30T13:55:17.472Z,45
2022-08-30T13:56:23.425Z,45
2022-08-30T13:57:10.622Z,46
2022-08-30T13:58:21.540Z,46
2022-08-30T13:59:12.792Z,46
2022-08-30T14:00:22.077Z,46
2022-08-30T14:01:15.223Z,46
2022-08-30T14:02:18.092Z,46
2022-08-30T14:03:19.148Z,46
2022-08-30T14:04:22.977Z,46
2022-08-30T14:06:32.046Z,46
2022-08-30T14:07:25.073Z,46
2022-08-30T14:09:02.999Z,46
2022-08-30T14:09:21.170Z,46
2022-08-30T14:10:52.447Z,46
2022-08-30T14:11:18.488Z,46
2022-08-30T14:12:09.326Z,46
2022-08-30T14:13:17.700Z,46
2022-08-30T14:14:47.611Z,46
2022-08-30T14:15:14.795Z,46
2022-08-30T14:16:39.014Z,46
2022-08-30T14:17:16.863Z,46
2022-08-30T14:18:25.863Z,46
2022-08-30T14:19:15.050Z,46
2022-08-30T14:20:24.127Z,46
2022-08-30T14:21:16.485Z,46
2022-08-30T14:22:19.411Z,46
2022-08-30T14:23:16.680Z,46
2022-08-30T14:24:22.041Z,47
2022-08-30T14:25:20.829Z,47
2022-08-30T14:26:21.284Z,47
2022-08-30T14:27:15.079Z,47
2022-08-30T14:28:19.822Z,47
2022-08-30T14:29:16.697Z,47
2022-08-30T14:30:22.471Z,47
2022-08-30T14:31:16.581Z,46
2022-08-30T14:32:20.463Z,46
2022-08-30T14:33:19.782Z,46
2022-08-30T14:34:15.089Z,46
2022-08-30T14:35:14.768Z,46
2022-08-30T14:36:22.843Z,46
2022-08-30T14:37:21.795Z,46
2022-08-30T14:38:17.866Z,47
2022-08-30T14:39:14.855Z,47
2022-08-30T14:40:18.701Z,47
2022-08-30T14:41:18.705Z,46
2022-08-30T14:42:22.989Z,46
2022-08-30T14:43:18.288Z,47
2022-08-30T14:44:12.817Z,47
2022-08-30T14:45:10.888Z,47
2022-08-30T14:46:14.333Z,47
2022-08-30T14:47:17.388Z,47
2022-08-30T14:48:21.873Z,47
2022-08-30T14:49:17.611Z,47
2022-08-30T14:50:18.644Z,47